Time;durP1;ratioP1;P1;durP2;ratioP2;P2;SDS_P1;SDS_P2;PMS_P1;PMS_P2;Temp;Humidity;BMP_temperature;BMP_pressure;BME280_temperature;BME280_humidity;BME280_pressure;Samples;Min_cycle;Max_cycle;Signal;HPM_P1;HPM_P2
2022/09/26 00:04:49;;;;;;;7.27;4.37;;;13.60;99.90;;;;;;20997494;28;20300;-66
2022/09/26 00:14:50;;;;;;;9.70;5.13;;;13.60;99.90;;;;;;21009036;28;20210;-66
2022/09/26 00:24:52;;;;;;;10.47;4.77;;;13.50;99.90;;;;;;21015031;28;20256;-66
2022/09/26 00:34:54;;;;;;;10.63;5.50;;;13.40;99.90;;;;;;21010981;28;20210;-66
2022/09/26 00:44:55;;;;;;;10.90;5.37;;;13.30;99.90;;;;;;21018810;28;20243;-66
2022/09/26 00:55:01;;;;;;;12.70;5.43;;;13.20;99.90;;;;;;21012134;28;20266;-66
2022/09/26 01:05:05;;;;;;;11.17;5.60;;;13.10;99.90;;;;;;21011485;28;20231;-66
2022/09/26 01:15:07;;;;;;;8.87;5.63;;;12.90;99.90;;;;;;21010478;28;20207;-65
2022/09/26 01:25:42;;;;;;;17.50;5.83;;;12.80;99.90;;;;;;21010431;28;20592;-66
2022/09/26 01:35:55;;;;;;;13.63;5.30;;;12.80;99.90;;;;;;21013913;28;20242;-65
2022/09/26 01:46:12;;;;;;;10.03;5.50;;;12.90;99.90;;;;;;21007895;28;20249;-66
2022/09/26 01:56:19;;;;;;;11.80;5.67;;;12.90;99.90;;;;;;21006820;28;20230;-66
2022/09/26 02:06:27;;;;;;;9.37;5.00;;;13.00;99.90;;;;;;21006487;28;20200;-66
2022/09/26 02:16:44;;;;;;;12.87;5.60;;;13.00;99.90;;;;;;21006148;28;20234;-65
2022/09/26 02:26:46;;;;;;;6.63;4.77;;;13.00;99.90;;;;;;21004643;28;20203;-65
2022/09/26 02:36:48;;;;;;;14.83;6.20;;;13.00;99.90;;;;;;21003974;28;20244;-66
2022/09/26 02:46:55;;;;;;;9.07;5.10;;;13.00;99.90;;;;;;21003375;28;20228;-66
2022/09/26 02:57:33;;;;;;;11.00;5.17;;;13.00;99.90;;;;;;21002247;28;20700;-67
2022/09/26 03:07:43;;;;;;;9.73;4.50;;;12.90;99.90;;;;;;21000540;28;20252;-66
2022/09/26 03:17:51;;;;;;;8.37;4.27;;;12.90;99.90;;;;;;21000977;28;20235;-66
2022/09/26 03:27:53;;;;;;;9.03;4.40;;;13.00;99.90;;;;;;20999570;28;20249;-66
2022/09/26 03:37:55;;;;;;;9.50;4.83;;;12.90;99.90;;;;;;20998813;28;20226;-67
2022/09/26 03:47:57;;;;;;;8.40;4.23;;;12.80;99.90;;;;;;20998800;28;20305;-67
2022/09/26 03:58:00;;;;;;;5.87;4.00;;;12.70;99.90;;;;;;20998271;28;20280;-64
2022/09/26 04:08:04;;;;;;;7.23;4.40;;;12.50;99.90;;;;;;20997029;28;20206;-66
2022/09/26 04:18:06;;;;;;;8.47;3.87;;;12.40;99.90;;;;;;20996771;28;20235;-66
2022/09/26 04:28:09;;;;;;;7.40;4.00;;;12.40;99.90;;;;;;20996501;28;20225;-66
2022/09/26 04:38:11;;;;;;;7.20;4.30;;;12.30;99.90;;;;;;20995563;28;20262;-66
2022/09/26 04:48:12;;;;;;;11.77;5.13;;;12.20;99.90;;;;;;20993347;28;20914;-65
2022/09/26 04:58:15;;;;;;;10.20;4.47;;;12.10;99.90;;;;;;20994312;28;20229;-67
2022/09/26 05:08:17;;;;;;;8.53;4.47;;;12.00;99.90;;;;;;20994128;28;20619;-67
2022/09/26 05:18:23;;;;;;;9.70;4.80;;;12.00;99.90;;;;;;20994395;28;20234;-67
2022/09/26 05:28:25;;;;;;;9.93;5.00;;;11.80;99.70;;;;;;21017512;28;20211;-66
2022/09/26 05:38:27;;;;;;;7.97;5.93;;;11.80;99.90;;;;;;21029343;28;20232;-66
2022/09/26 05:48:32;;;;;;;11.13;6.00;;;11.70;99.90;;;;;;21008605;28;20625;-69
2022/09/26 05:58:36;;;;;;;11.13;6.33;;;11.70;99.70;;;;;;21005802;28;20227;-65
2022/09/26 06:08:39;;;;;;;11.50;6.70;;;11.70;99.90;;;;;;21004159;28;20207;-65
2022/09/26 06:18:41;;;;;;;11.43;7.50;;;11.80;99.90;;;;;;21004216;28;20235;-66
2022/09/26 06:28:42;;;;;;;16.57;10.10;;;11.90;99.90;;;;;;21005143;28;20284;-67
2022/09/26 06:38:44;;;;;;;14.33;10.80;;;11.90;99.90;;;;;;21002691;28;20240;-66
2022/09/26 06:48:46;;;;;;;15.83;10.57;;;12.00;99.90;;;;;;21002880;28;20277;-69
2022/09/26 06:58:48;;;;;;;15.67;10.33;;;12.10;99.90;;;;;;21013011;28;20236;-69
2022/09/26 07:08:51;;;;;;;19.23;9.43;;;12.40;99.80;;;;;;21003934;28;20611;-66
2022/09/26 07:19:04;;;;;;;16.93;9.30;;;12.50;99.90;;;;;;21000396;28;20243;-68
2022/09/26 07:29:08;;;;;;;12.67;8.90;;;12.70;99.80;;;;;;20999325;28;20212;-65
2022/09/26 07:39:10;;;;;;;17.70;8.33;;;12.90;99.90;;;;;;20998654;28;20231;-67
2022/09/26 07:59:34;;;;;;;14.47;6.90;;;13.50;99.10;;;;;;20996209;28;20763;-68
2022/09/26 08:09:37;;;;;;;10.37;6.20;;;13.80;98.60;;;;;;20996507;28;20618;-67
2022/09/26 08:19:39;;;;;;;10.37;5.40;;;13.90;97.80;;;;;;20996561;28;20223;-68
2022/09/26 08:29:41;;;;;;;13.53;4.87;;;14.10;97.20;;;;;;20994712;28;20212;-67
2022/09/26 08:39:42;;;;;;;6.60;4.53;;;14.20;96.70;;;;;;20994079;28;20235;-66
2022/09/26 08:50:00;;;;;;;7.43;4.03;;;14.50;96.30;;;;;;20994526;28;20285;-68
2022/09/26 09:00:17;;;;;;;6.87;3.70;;;14.80;95.50;;;;;;20993885;28;20704;-67
2022/09/26 09:10:42;;;;;;;7.50;3.90;;;14.90;95.10;;;;;;21008234;28;20289;-68
2022/09/26 09:20:48;;;;;;;6.90;3.60;;;15.00;94.60;;;;;;21009213;28;20263;-67
2022/09/26 09:31:03;;;;;;;4.90;3.17;;;15.10;94.50;;;;;;21008587;28;20257;-65
2022/09/26 09:41:14;;;;;;;6.33;3.27;;;15.50;94.60;;;;;;21007657;28;20276;-67
2022/09/26 09:51:30;;;;;;;4.97;3.37;;;15.50;93.70;;;;;;21006916;28;20755;-66
2022/09/26 10:01:45;;;;;;;8.07;3.00;;;15.70;93.40;;;;;;21006687;28;20227;-67
2022/09/26 10:11:49;;;;;;;5.80;2.87;;;15.90;92.40;;;;;;21005513;28;20202;-68
2022/09/26 10:21:53;;;;;;;8.13;2.57;;;15.50;92.10;;;;;;21004624;28;20333;-66
2022/09/26 10:31:59;;;;;;;4.97;2.03;;;15.50;92.40;;;;;;21004876;28;20210;-66
2022/09/26 10:42:02;;;;;;;5.87;2.10;;;15.60;91.80;;;;;;21003818;28;20230;-66
2022/09/26 10:52:10;;;;;;;3.80;1.80;;;15.60;91.20;;;;;;21002990;28;20237;-67
2022/09/26 11:02:22;;;;;;;2.17;1.60;;;16.10;88.40;;;;;;21003074;28;20238;-67
2022/09/26 11:12:26;;;;;;;6.57;1.93;;;16.20;88.90;;;;;;21001537;28;20260;-67
2022/09/26 11:22:42;;;;;;;3.03;1.90;;;15.90;85.70;;;;;;21000104;28;20242;-66
2022/09/26 11:32:51;;;;;;;5.10;2.03;;;15.90;86.50;;;;;;20999700;28;20272;-66
2022/09/26 11:43:23;;;;;;;6.30;3.70;;;16.00;86.20;;;;;;20998141;28;20234;-67
2022/09/26 11:53:47;;;;;;;5.00;2.60;;;16.00;86.80;;;;;;20997839;28;20258;-66
2022/09/26 12:04:15;;;;;;;3.77;1.70;;;16.20;87.30;;;;;;20997277;28;20235;-68
2022/09/26 12:14:46;;;;;;;3.03;1.50;;;16.50;87.60;;;;;;21008381;28;20646;-70
2022/09/26 12:25:10;;;;;;;11.17;1.63;;;16.60;87.20;;;;;;21008116;28;20231;-68
2022/09/26 12:35:18;;;;;;;5.17;1.70;;;16.90;84.90;;;;;;20997301;28;20217;-69
2022/09/26 12:45:32;;;;;;;4.23;1.53;;;17.20;84.20;;;;;;20995130;28;20236;-70
2022/09/26 12:55:50;;;;;;;3.40;1.70;;;17.40;82.90;;;;;;20994902;28;20200;-68
2022/09/26 13:06:30;;;;;;;4.10;1.60;;;17.10;82.90;;;;;;21014633;28;20232;-68
2022/09/26 13:16:53;;;;;;;3.73;1.50;;;16.80;83.80;;;;;;21028352;28;20219;-74
2022/09/26 13:27:11;;;;;;;2.53;1.30;;;16.90;84.30;;;;;;21017736;28;20663;-76
2022/09/26 13:37:30;;;;;;;5.50;1.80;;;16.80;83.70;;;;;;21025848;28;20253;-75
2022/09/26 13:47:54;;;;;;;2.13;0.90;;;16.80;82.90;;;;;;20983491;28;20726;-76
2022/09/26 13:58:01;;;;;;;3.13;1.70;;;16.30;74.70;;;;;;20925098;28;20906;-74
2022/09/26 14:19:03;;;;;;;2.83;1.60;;;16.10;76.20;;;;;;20924234;28;20239;-79
2022/09/26 14:29:29;;;;;;;3.27;1.37;;;15.90;77.60;;;;;;20922359;28;20215;-76
2022/09/26 14:39:43;;;;;;;6.73;1.40;;;15.70;79.50;;;;;;20920130;28;20296;-76
2022/09/26 14:50:12;;;;;;;3.00;2.10;;;15.60;80.30;;;;;;20917489;28;20772;-76
2022/09/26 15:00:38;;;;;;;5.13;1.60;;;15.60;81.10;;;;;;20900063;28;20241;-72
2022/09/26 15:10:40;;;;;;;2.90;1.60;;;15.60;82.10;;;;;;20916074;28;20637;-74
2022/09/26 15:20:50;;;;;;;1.87;1.60;;;15.60;82.60;;;;;;20909221;28;20244;-78
2022/09/26 15:31:19;;;;;;;2.00;1.40;;;15.50;83.30;;;;;;20856727;28;20660;-77
2022/09/26 15:51:42;;;;;;;4.10;1.60;;;15.40;86.80;;;;;;20832845;28;20766;-73
2022/09/26 16:01:48;;;;;;;2.27;1.90;;;15.20;89.40;;;;;;20836596;28;20278;-73
2022/09/26 16:11:55;;;;;;;3.17;1.80;;;15.00;90.70;;;;;;20913275;28;20214;-71
2022/09/26 16:21:57;;;;;;;3.80;2.10;;;15.00;91.80;;;;;;20916098;28;20240;-76
2022/09/26 16:32:00;;;;;;;4.83;1.80;;;14.70;92.20;;;;;;20920139;28;20658;-79
2022/09/26 16:42:11;;;;;;;2.07;1.67;;;14.50;92.30;;;;;;20916636;28;20235;-76
2022/09/26 16:52:30;;;;;;;2.10;1.70;;;14.40;92.70;;;;;;20919137;28;20285;-77
2022/09/26 17:02:34;;;;;;;3.23;1.97;;;14.40;92.90;;;;;;20884986;28;20232;-75
2022/09/26 17:12:36;;;;;;;3.40;1.57;;;14.40;93.20;;;;;;20896520;28;20684;-73
2022/09/26 17:22:37;;;;;;;1.60;1.50;;;14.30;93.00;;;;;;20829022;28;20295;-79
2022/09/26 17:32:45;;;;;;;2.33;1.77;;;14.20;93.50;;;;;;20842281;28;20209;-73
2022/09/26 17:42:47;;;;;;;5.73;1.90;;;14.20;93.70;;;;;;20849583;28;20235;-75
2022/09/26 17:52:49;;;;;;;2.13;1.60;;;14.10;93.80;;;;;;20894368;28;20240;-73
2022/09/26 18:03:00;;;;;;;2.17;1.57;;;14.10;94.20;;;;;;20841849;28;20243;-74
2022/09/26 18:13:06;;;;;;;2.17;1.50;;;14.10;94.30;;;;;;20822961;28;20204;-72
2022/09/26 18:23:27;;;;;;;2.07;1.57;;;14.00;94.40;;;;;;20842685;28;20611;-75
2022/09/26 18:33:30;;;;;;;3.00;1.80;;;14.00;94.60;;;;;;20839352;28;20234;-73
2022/09/26 18:43:41;;;;;;;4.43;2.80;;;14.10;94.80;;;;;;20879869;28;20684;-72
2022/09/26 18:53:43;;;;;;;4.93;2.80;;;14.00;95.30;;;;;;20882596;28;20246;-72
2022/09/26 19:03:47;;;;;;;3.83;2.60;;;14.00;95.50;;;;;;20988866;28;20595;-71
2022/09/26 19:13:54;;;;;;;3.13;2.00;;;14.10;95.70;;;;;;20999813;28;20207;-72
2022/09/26 19:24:00;;;;;;;2.40;1.90;;;14.00;95.70;;;;;;20998643;28;20246;-72
2022/09/26 19:34:02;;;;;;;2.27;1.70;;;14.10;96.30;;;;;;20951050;28;20261;-74
2022/09/26 19:44:06;;;;;;;6.40;1.90;;;14.00;96.00;;;;;;20915176;28;20243;-74
2022/09/26 19:54:15;;;;;;;3.97;1.90;;;14.10;95.80;;;;;;20913547;28;20238;-71
2022/09/26 20:04:18;;;;;;;4.07;1.90;;;14.10;96.00;;;;;;20895174;28;20236;-73
2022/09/26 20:14:22;;;;;;;3.37;2.00;;;14.10;95.90;;;;;;20912928;28;20241;-73
2022/09/26 20:24:25;;;;;;;3.90;1.60;;;14.10;95.60;;;;;;20911515;28;20297;-71
2022/09/26 20:34:27;;;;;;;4.70;2.03;;;14.10;95.80;;;;;;20861239;28;20211;-72
2022/09/26 20:44:32;;;;;;;2.57;1.80;;;14.10;96.10;;;;;;20829561;28;20236;-72
2022/09/26 20:54:34;;;;;;;2.83;2.07;;;14.00;96.20;;;;;;20830612;28;20251;-74
2022/09/26 21:04:35;;;;;;;2.00;1.73;;;14.00;96.40;;;;;;20838786;28;20695;-73
2022/09/26 21:14:37;;;;;;;3.30;2.00;;;13.90;96.60;;;;;;20845685;28;20263;-74
2022/09/26 21:24:41;;;;;;;3.27;2.07;;;13.90;96.90;;;;;;20844567;28;20722;-74
2022/09/26 21:34:54;;;;;;;3.27;2.30;;;13.80;97.00;;;;;;20896175;28;20199;-76
2022/09/26 21:45:01;;;;;;;3.27;2.10;;;13.80;97.40;;;;;;20925951;28;20664;-76
2022/09/26 21:55:05;;;;;;;4.27;2.00;;;13.80;97.50;;;;;;20921288;28;20645;-75
2022/09/26 22:05:08;;;;;;;5.77;2.30;;;13.70;97.50;;;;;;20922779;28;20296;-75
2022/09/26 22:15:10;;;;;;;4.20;2.37;;;13.70;97.80;;;;;;20913663;28;20597;-76
2022/09/26 22:25:11;;;;;;;3.83;2.20;;;13.70;98.10;;;;;;20836409;28;20237;-72
2022/09/26 22:35:13;;;;;;;2.80;1.80;;;13.60;98.20;;;;;;20837760;28;20279;-75
2022/09/26 22:45:16;;;;;;;2.73;1.60;;;13.50;98.40;;;;;;20839053;28;20234;-74
2022/09/26 22:55:18;;;;;;;2.60;1.47;;;13.30;98.60;;;;;;20837733;28;20236;-75
2022/09/26 23:05:19;;;;;;;3.37;1.50;;;13.20;98.80;;;;;;20837256;28;20240;-74
2022/09/26 23:15:21;;;;;;;2.27;1.50;;;13.20;98.90;;;;;;20854191;28;20212;-74
2022/09/26 23:25:23;;;;;;;2.03;1.50;;;13.20;99.00;;;;;;20841067;28;20234;-74
2022/09/26 23:35:24;;;;;;;1.50;1.40;;;13.10;99.00;;;;;;20835052;28;20218;-74
2022/09/26 23:45:26;;;;;;;2.53;1.20;;;13.10;99.00;;;;;;20834297;28;20773;-75
2022/09/26 23:55:27;;;;;;;2.53;1.30;;;13.10;99.30;;;;;;20834927;28;20232;-74
